Time;durP1;ratioP1;P1;durP2;ratioP2;P2;SDS_P1;SDS_P2;PMS_P1;PMS_P2;Temp;Humidity;BMP_temperature;BMP_pressure;BME280_temperature;BME280_humidity;BME280_pressure;Samples;Min_cycle;Max_cycle;Signal;HPM_P1;HPM_P2
2022/02/23 00:03:22;;;;;;;14.03;6.40;;;;;;;6.69;82.33;99790.75;2485810;94;21090;-64
2022/02/23 00:07:24;;;;;;;8.88;5.28;;;;;;;6.71;82.59;99796.77;2487168;93;21077;-66
2022/02/23 00:11:25;;;;;;;7.05;5.20;;;;;;;6.70;83.79;99797.72;2493847;93;21671;-64
2022/02/23 00:15:28;;;;;;;25.32;10.15;;;;;;;6.70;84.55;99801.69;2487953;92;21127;-64
2022/02/23 00:19:29;;;;;;;19.80;7.92;;;;;;;6.73;85.29;99794.48;2486722;94;21116;-65
2022/02/23 00:23:31;;;;;;;11.75;5.45;;;;;;;6.73;86.65;99791.84;2490483;94;21161;-65
2022/02/23 00:27:33;;;;;;;5.83;4.67;;;;;;;6.74;87.96;99782.95;2490695;93;21057;-64
2022/02/23 00:31:35;;;;;;;12.13;5.40;;;;;;;6.78;88.28;99768.55;2488676;94;21589;-64
2022/02/23 00:35:37;;;;;;;16.25;6.65;;;;;;;6.85;89.09;99763.15;2488040;94;21212;-64
2022/02/23 00:39:39;;;;;;;10.45;5.90;;;;;;;6.90;90.16;99751.77;2493734;94;21119;-64
2022/02/23 00:43:41;;;;;;;5.97;2.98;;;;;;;6.97;90.58;99742.41;2466558;94;21106;-64
2022/02/23 00:47:43;;;;;;;4.85;2.35;;;;;;;7.15;91.67;99745.94;2458530;94;21121;-64
2022/02/23 00:51:44;;;;;;;3.45;1.77;;;;;;;7.36;91.60;99744.76;2455822;95;21133;-65
2022/02/23 00:55:46;;;;;;;2.85;1.50;;;;;;;7.52;91.61;99741.78;2486235;94;21116;-64
2022/02/23 00:59:49;;;;;;;4.33;1.65;;;;;;;7.60;91.65;99742.98;2500716;93;21112;-64
2022/02/23 01:03:51;;;;;;;2.65;1.60;;;;;;;7.70;90.96;99732.87;2500149;92;21166;-63
2022/02/23 01:07:53;;;;;;;0.95;0.90;;;;;;;7.85;90.60;99736.60;2513287;92;21074;-64
2022/02/23 01:11:54;;;;;;;2.17;1.35;;;;;;;7.91;90.27;99729.48;2512427;92;21080;-64
2022/02/23 01:15:57;;;;;;;1.65;0.88;;;;;;;7.89;90.05;99732.73;2509375;93;21065;-65
2022/02/23 01:19:58;;;;;;;2.05;1.00;;;;;;;7.93;90.28;99722.75;2470741;94;21138;-64
2022/02/23 01:24:01;;;;;;;1.10;0.88;;;;;;;7.94;90.82;99740.33;2479213;94;21114;-64
2022/02/23 01:28:05;;;;;;;2.58;1.80;;;;;;;7.89;91.26;99739.86;2473482;93;21113;-63
2022/02/23 01:32:08;;;;;;;1.37;0.90;;;;;;;7.87;91.80;99730.70;2476878;94;21397;-65
2022/02/23 01:36:09;;;;;;;2.12;1.50;;;;;;;7.93;91.84;99750.56;2504557;93;21185;-64
2022/02/23 01:40:14;;;;;;;1.12;1.00;;;;;;;7.96;91.60;99744.55;2476076;93;21176;-64
2022/02/23 01:44:15;;;;;;;1.10;1.00;;;;;;;7.92;91.64;99739.61;2472873;93;21154;-64
2022/02/23 01:48:17;;;;;;;1.98;1.35;;;;;;;7.91;91.95;99741.40;2477337;93;21076;-65
2022/02/23 01:52:19;;;;;;;1.62;1.20;;;;;;;7.94;92.08;99746.45;2482189;94;21129;-64
2022/02/23 01:56:20;;;;;;;1.87;1.22;;;;;;;7.96;92.16;99739.25;2485747;94;21158;-65
2022/02/23 02:00:22;;;;;;;2.80;2.08;;;;;;;8.08;91.59;99774.97;2473957;93;21141;-65
2022/02/23 02:04:25;;;;;;;4.15;2.98;;;;;;;8.12;91.42;99784.36;2482191;94;21176;-65
2022/02/23 02:08:26;;;;;;;5.30;2.62;;;;;;;8.14;91.65;99789.05;2472009;94;21151;-64
2022/02/23 02:12:28;;;;;;;3.70;2.47;;;;;;;8.14;91.59;99789.91;2474335;94;21098;-64
2022/02/23 02:16:30;;;;;;;3.75;2.62;;;;;;;8.20;91.01;99786.39;2473602;94;21181;-64
2022/02/23 02:20:31;;;;;;;6.90;3.15;;;;;;;8.26;90.98;99806.62;2477517;94;21165;-64
2022/02/23 02:24:37;;;;;;;4.22;2.20;;;;;;;8.32;90.66;99809.27;2477383;93;22155;-64
2022/02/23 02:28:39;;;;;;;2.62;2.42;;;;;;;8.31;90.83;99807.59;2479157;93;21105;-65
2022/02/23 02:32:41;;;;;;;9.43;3.37;;;;;;;8.25;91.37;99814.22;2509297;93;21192;-64
2022/02/23 02:36:43;;;;;;;5.25;2.58;;;;;;;8.11;93.12;99843.14;2506454;92;21148;-64
2022/02/23 02:40:45;;;;;;;5.10;2.72;;;;;;;7.91;94.50;99857.92;2504187;93;21113;-65
2022/02/23 02:44:47;;;;;;;2.37;1.75;;;;;;;7.77;92.73;99859.00;2478982;94;21764;-64
2022/02/23 02:48:48;;;;;;;2.47;2.35;;;;;;;7.52;90.85;99870.61;2486877;93;21086;-63
2022/02/23 02:52:50;;;;;;;6.08;1.85;;;;;;;7.31;92.48;99875.73;2515885;92;21108;-64
2022/02/23 02:56:52;;;;;;;1.85;1.10;;;;;;;7.24;92.28;99877.50;2471769;93;21126;-63
2022/02/23 03:00:53;;;;;;;2.12;1.30;;;;;;;7.15;91.90;99895.39;2476536;93;21162;-64
2022/02/23 03:04:55;;;;;;;7.35;1.30;;;;;;;7.26;91.33;99898.56;2474223;93;21104;-65
2022/02/23 03:08:57;;;;;;;4.53;1.47;;;;;;;7.28;89.27;99890.89;2476314;93;21116;-64
2022/02/23 03:12:59;;;;;;;9.30;1.87;;;;;;;7.29;87.78;99919.50;2474502;94;21171;-64
2022/02/23 03:17:00;;;;;;;2.05;1.40;;;;;;;7.20;87.46;99939.54;2491773;93;21082;-64
2022/02/23 03:21:02;;;;;;;3.60;2.10;;;;;;;7.12;86.63;99946.70;2506790;92;21180;-64
2022/02/23 03:25:06;;;;;;;13.03;3.65;;;;;;;6.99;85.03;99932.70;2503660;92;21615;-64
2022/02/23 03:29:08;;;;;;;10.15;3.20;;;;;;;7.04;85.48;99957.47;2514395;93;21199;-64
2022/02/23 03:33:09;;;;;;;9.63;3.25;;;;;;;7.00;82.51;99973.57;2500190;93;21069;-64
2022/02/23 03:37:11;;;;;;;6.97;3.85;;;;;;;6.98;81.70;99958.30;2512017;92;21124;-64
2022/02/23 03:41:14;;;;;;;8.00;3.67;;;;;;;6.97;81.19;99967.19;2507496;92;21084;-64
2022/02/23 03:45:16;;;;;;;13.38;4.47;;;;;;;6.92;81.69;99994.45;2508462;92;21104;-64
2022/02/23 03:49:18;;;;;;;8.43;2.65;;;;;;;6.89;82.75;100003.06;2474922;93;21131;-65
2022/02/23 03:53:20;;;;;;;16.02;3.75;;;;;;;6.82;84.30;100013.22;2458748;94;21117;-64
2022/02/23 03:57:21;;;;;;;4.80;2.80;;;;;;;6.80;84.93;100023.92;2471569;92;21161;-63
2022/02/23 04:01:23;;;;;;;9.73;3.12;;;;;;;6.82;83.52;100030.41;2475615;93;21161;-65
2022/02/23 04:05:24;;;;;;;7.00;2.52;;;;;;;6.77;83.41;100023.28;2462581;94;21162;-64
2022/02/23 04:09:26;;;;;;;18.45;4.10;;;;;;;6.73;83.53;100045.11;2488208;92;21125;-63
2022/02/23 04:13:28;;;;;;;7.55;3.50;;;;;;;6.72;82.72;100051.36;2465200;93;21187;-64
2022/02/23 04:17:30;;;;;;;8.80;3.33;;;;;;;6.76;83.37;100062.08;2499660;92;21100;-64
2022/02/23 04:21:32;;;;;;;10.18;3.47;;;;;;;6.72;83.49;100065.89;2504550;91;21167;-68
2022/02/23 04:25:34;;;;;;;10.03;2.83;;;;;;;6.59;82.79;100091.50;2513647;92;21125;-68
2022/02/23 04:29:35;;;;;;;18.62;3.67;;;;;;;6.55;83.40;100091.69;2469464;93;21153;-68
2022/02/23 04:33:37;;;;;;;13.93;4.53;;;;;;;6.47;83.72;100097.98;2470139;94;21129;-68
2022/02/23 04:37:39;;;;;;;13.83;4.10;;;;;;;6.34;83.40;100107.22;2511294;93;21096;-69
2022/02/23 04:41:41;;;;;;;10.82;6.10;;;;;;;6.16;83.84;100111.91;2478015;93;21254;-68
2022/02/23 04:45:43;;;;;;;6.08;2.62;;;;;;;6.07;83.86;100124.41;2479282;94;21181;-69
2022/02/23 04:49:44;;;;;;;17.90;3.58;;;;;;;5.91;84.46;100119.27;2493148;93;21162;-68
2022/02/23 04:53:48;;;;;;;8.20;3.35;;;;;;;5.79;84.94;100137.58;2511253;92;21105;-69
2022/02/23 04:57:49;;;;;;;11.63;3.58;;;;;;;5.70;85.16;100159.30;2504542;92;21081;-69
2022/02/23 05:01:51;;;;;;;8.68;2.70;;;;;;;5.71;84.77;100128.83;2470227;93;21555;-68
2022/02/23 05:05:53;;;;;;;6.60;3.17;;;;;;;5.62;84.77;100139.13;2486283;94;21109;-65
2022/02/23 05:09:56;;;;;;;26.93;3.90;;;;;;;5.63;84.85;100152.70;2479906;94;21118;-65
2022/02/23 05:13:57;;;;;;;10.85;3.40;;;;;;;5.52;84.45;100156.88;2472874;93;21154;-67
2022/02/23 05:17:59;;;;;;;8.38;2.87;;;;;;;5.55;84.41;100156.67;2474311;94;21122;-67
2022/02/23 05:22:02;;;;;;;8.00;2.87;;;;;;;5.42;84.48;100188.72;2470477;93;21129;-67
2022/02/23 05:26:04;;;;;;;10.03;4.00;;;;;;;5.44;84.90;100186.83;2475508;93;21147;-67
2022/02/23 05:30:07;;;;;;;9.78;4.15;;;;;;;5.39;85.07;100212.66;2480166;93;21630;-67
2022/02/23 05:34:08;;;;;;;14.00;4.33;;;;;;;5.36;84.32;100212.36;2482936;93;21127;-67
2022/02/23 05:38:10;;;;;;;11.63;2.65;;;;;;;5.39;84.11;100217.94;2481736;94;21666;-67
2022/02/23 05:42:12;;;;;;;9.00;4.28;;;;;;;5.48;83.43;100217.35;2471328;93;21106;-67
2022/02/23 05:46:13;;;;;;;19.75;4.37;;;;;;;5.46;83.26;100211.33;2476231;94;21117;-67
2022/02/23 05:50:16;;;;;;;14.55;3.95;;;;;;;5.45;83.71;100234.69;2477412;93;21543;-67
2022/02/23 05:54:18;;;;;;;9.88;3.37;;;;;;;5.45;82.95;100250.52;2478781;93;21105;-67
2022/02/23 05:58:19;;;;;;;14.50;3.55;;;;;;;5.48;83.12;100264.01;2471316;94;21182;-67
2022/02/23 06:02:21;;;;;;;14.50;3.40;;;;;;;5.52;83.23;100261.09;2472162;94;21136;-67
2022/02/23 06:06:23;;;;;;;9.15;3.65;;;;;;;5.52;83.21;100264.20;2496435;93;21162;-67
2022/02/23 06:10:26;;;;;;;13.78;4.05;;;;;;;5.55;82.87;100267.96;2504967;92;21049;-67
2022/02/23 06:14:30;;;;;;;18.52;4.28;;;;;;;5.65;82.82;100287.58;2500966;92;21077;-67
2022/02/23 06:18:31;;;;;;;9.60;5.08;;;;;;;5.62;83.22;100286.91;2510505;92;21112;-67
2022/02/23 06:22:33;;;;;;;17.00;4.00;;;;;;;5.56;83.64;100308.78;2515426;92;21170;-67
2022/02/23 06:26:35;;;;;;;8.55;3.52;;;;;;;5.62;84.32;100311.98;2504258;92;21157;-66
2022/02/23 06:30:37;;;;;;;18.48;4.17;;;;;;;5.71;84.54;100352.34;2499324;92;21583;-66
2022/02/23 06:34:39;;;;;;;10.40;3.70;;;;;;;5.88;84.46;100328.00;2464496;95;21631;-67
2022/02/23 06:38:42;;;;;;;9.83;4.22;;;;;;;5.96;83.74;100360.08;2431640;95;21133;-67
2022/02/23 06:42:44;;;;;;;7.47;4.25;;;;;;;6.02;84.14;100365.50;2515914;91;21046;-67
2022/02/23 06:46:47;;;;;;;9.73;2.47;;;;;;;6.05;83.39;100361.34;2478480;93;21144;-67
2022/02/23 06:50:49;;;;;;;8.93;5.22;;;;;;;6.08;82.59;100388.39;2520341;91;21516;-68
2022/02/23 06:54:51;;;;;;;16.10;5.12;;;;;;;6.14;82.87;100372.19;2450209;96;21173;-67
2022/02/23 06:58:53;;;;;;;14.25;4.75;;;;;;;6.18;83.01;100416.89;2476763;93;21166;-67
2022/02/23 07:02:55;;;;;;;8.65;3.98;;;;;;;6.18;82.71;100409.80;2484570;93;21190;-68
2022/02/23 07:06:57;;;;;;;18.48;4.42;;;;;;;6.35;82.92;100424.63;2482883;93;21198;-68
2022/02/23 07:11:00;;;;;;;8.95;3.10;;;;;;;6.49;83.22;100433.50;2484948;92;21098;-68
2022/02/23 07:15:02;;;;;;;11.97;4.15;;;;;;;6.58;82.80;100434.23;2514014;92;21148;-68
2022/02/23 07:19:05;;;;;;;17.10;4.97;;;;;;;6.56;82.72;100433.00;2510468;92;21089;-68
2022/02/23 07:23:07;;;;;;;19.25;4.12;;;;;;;6.49;83.22;100458.61;2507385;92;21127;-68
2022/02/23 07:27:12;;;;;;;11.08;3.67;;;;;;;6.62;82.57;100471.41;2508255;92;21112;-68
2022/02/23 07:31:19;;;;;;;22.37;4.00;;;;;;;6.65;82.65;100472.55;2506993;92;21113;-68
2022/02/23 07:35:21;;;;;;;7.30;3.30;;;;;;;6.73;82.13;100490.58;2477606;94;21106;-67
2022/02/23 07:39:22;;;;;;;13.53;5.08;;;;;;;6.75;83.02;100489.17;2469718;93;21138;-68
2022/02/23 07:43:24;;;;;;;15.03;4.78;;;;;;;6.74;82.81;100513.42;2468064;94;21035;-67
2022/02/23 07:47:25;;;;;;;5.17;3.00;;;;;;;6.69;82.64;100529.59;2420085;96;21168;-66
2022/02/23 07:51:29;;;;;;;8.00;3.45;;;;;;;6.73;82.49;100509.08;2499479;92;21116;-65
2022/02/23 07:55:31;;;;;;;12.63;4.25;;;;;;;6.76;82.42;100531.84;2497800;92;21197;-66
2022/02/23 07:59:33;;;;;;;13.08;4.65;;;;;;;6.81;82.79;100527.98;2478526;93;21091;-66
2022/02/23 08:03:36;;;;;;;16.85;4.40;;;;;;;6.98;82.81;100532.20;2482952;94;21106;-66
2022/02/23 08:07:38;;;;;;;9.18;4.65;;;;;;;7.09;81.40;100556.66;2476795;94;21145;-66
2022/02/23 08:11:41;;;;;;;11.70;4.40;;;;;;;7.08;80.74;100570.83;2417307;96;21189;-66
2022/02/23 08:19:58;;;;;;;10.05;4.70;;;;;;;7.10;80.63;100562.31;2471771;94;21171;-66
2022/02/23 08:24:00;;;;;;;11.38;4.22;;;;;;;7.12;80.51;100571.49;2509483;92;21190;-66
2022/02/23 08:28:02;;;;;;;14.65;4.17;;;;;;;7.11;80.14;100573.77;2472634;93;21707;-66
2022/02/23 08:32:08;;;;;;;6.25;3.62;;;;;;;7.11;79.94;100596.25;2476573;93;21072;-67
2022/02/23 08:36:09;;;;;;;10.45;3.70;;;;;;;7.28;79.51;100596.05;2506708;92;21369;-66
2022/02/23 08:40:11;;;;;;;11.85;4.53;;;;;;;7.37;79.91;100601.23;2478597;93;21098;-66
2022/02/23 08:44:14;;;;;;;10.95;5.15;;;;;;;7.40;78.72;100607.64;2478237;94;21118;-66
2022/02/23 08:48:16;;;;;;;13.18;4.28;;;;;;;7.67;77.75;100601.52;2480708;92;21632;-66
2022/02/23 08:52:17;;;;;;;11.40;4.70;;;;;;;7.75;78.74;100631.94;2504673;92;21089;-67
2022/02/23 08:56:19;;;;;;;17.75;4.53;;;;;;;7.69;75.95;100618.64;2461517;94;21204;-66
2022/02/23 09:00:21;;;;;;;7.70;3.35;;;;;;;7.68;76.47;100619.59;2501388;92;21177;-67
2022/02/23 09:04:22;;;;;;;10.23;3.85;;;;;;;7.80;77.86;100618.78;2476980;93;21110;-66
2022/02/23 09:08:24;;;;;;;12.95;4.92;;;;;;;7.89;74.86;100633.23;2465494;93;21121;-67
2022/02/23 09:12:26;;;;;;;8.23;3.75;;;;;;;8.06;74.37;100610.94;2474997;93;21198;-67
2022/02/23 09:16:27;;;;;;;13.45;3.77;;;;;;;8.09;74.56;100635.91;2498260;92;21179;-67
2022/02/23 09:20:31;;;;;;;18.57;5.22;;;;;;;8.24;73.42;100601.37;2501155;92;21133;-68
2022/02/23 09:24:32;;;;;;;8.05;3.67;;;;;;;8.26;74.54;100629.97;2499176;92;21496;-68
2022/02/23 09:28:37;;;;;;;12.60;2.50;;;;;;;8.30;74.55;100639.41;2493975;92;21195;-68
2022/02/23 09:32:39;;;;;;;12.13;4.20;;;;;;;8.19;71.19;100647.21;2490460;92;21165;-68
2022/02/23 09:36:41;;;;;;;9.65;4.85;;;;;;;8.25;73.15;100649.45;2472841;93;21170;-68
2022/02/23 09:40:52;;;;;;;11.40;2.95;;;;;;;8.24;72.02;100675.58;2521694;92;21162;-68
2022/02/23 09:44:59;;;;;;;9.03;3.22;;;;;;;8.26;71.30;100659.95;2498374;93;21116;-68
2022/02/23 09:49:00;;;;;;;8.95;3.67;;;;;;;8.27;73.01;100673.58;2501831;92;21134;-68
2022/02/23 09:53:01;;;;;;;5.67;3.20;;;;;;;8.34;71.84;100674.48;2504532;92;21590;-68
2022/02/23 09:57:04;;;;;;;10.28;2.72;;;;;;;8.34;71.02;100681.98;2500648;92;21432;-68
2022/02/23 10:01:07;;;;;;;6.30;3.35;;;;;;;8.51;72.98;100691.98;2501108;92;21136;-67
2022/02/23 10:05:10;;;;;;;10.08;4.53;;;;;;;8.52;69.94;100693.67;2500660;93;21105;-68
2022/02/23 10:09:13;;;;;;;15.28;3.27;;;;;;;8.75;68.82;100681.98;2507278;92;21093;-68
2022/02/23 10:13:18;;;;;;;9.75;2.37;;;;;;;8.80;66.53;100676.75;2470998;94;21513;-68
2022/02/23 10:17:44;;;;;;;5.40;2.30;;;;;;;8.72;68.25;100689.66;2501782;92;21150;-68
2022/02/23 10:21:59;;;;;;;11.70;2.90;;;;;;;8.77;67.86;100696.86;2466446;93;21071;-68
2022/02/23 10:26:02;;;;;;;11.28;3.60;;;;;;;8.65;65.84;100699.87;2465437;93;21127;-68
2022/02/23 10:30:06;;;;;;;9.23;3.30;;;;;;;8.84;65.98;100681.34;2478288;93;21136;-68
2022/02/23 10:34:17;;;;;;;4.35;2.22;;;;;;;8.81;66.22;100689.06;2494527;92;21136;-68
2022/02/23 10:38:27;;;;;;;10.23;2.83;;;;;;;8.70;67.01;100705.70;2493155;92;21084;-68
2022/02/23 10:42:33;;;;;;;5.62;2.98;;;;;;;8.73;67.81;100702.47;2487137;92;21451;-68
2022/02/23 10:46:38;;;;;;;8.55;3.40;;;;;;;8.85;68.15;100709.60;2495856;92;21146;-67
2022/02/23 10:50:40;;;;;;;11.38;4.33;;;;;;;8.78;68.18;100708.30;2474556;93;21080;-68
2022/02/23 10:54:41;;;;;;;13.95;2.72;;;;;;;8.68;67.13;100746.06;2471784;93;21163;-67
2022/02/23 10:58:44;;;;;;;8.13;2.58;;;;;;;8.60;66.46;100706.42;2508074;92;21061;-67
2022/02/23 11:02:47;;;;;;;3.55;1.60;;;;;;;8.74;67.81;100755.89;2473136;93;21058;-68
2022/02/23 11:06:52;;;;;;;10.70;3.67;;;;;;;8.74;67.88;100739.97;2479515;94;21100;-67
2022/02/23 11:10:54;;;;;;;5.03;3.83;;;;;;;8.64;68.22;100755.16;2477113;93;21095;-67
2022/02/23 11:14:56;;;;;;;7.28;1.95;;;;;;;8.81;67.83;100735.94;2453879;95;21115;-66
2022/02/23 11:19:00;;;;;;;10.60;3.92;;;;;;;8.71;67.45;100780.80;2507126;92;21105;-67
2022/02/23 11:23:04;;;;;;;11.55;3.67;;;;;;;8.77;67.52;100741.09;2509571;92;21626;-68
2022/02/23 11:27:10;;;;;;;6.55;2.37;;;;;;;8.77;67.85;100759.66;2520418;92;21116;-67
2022/02/23 11:31:13;;;;;;;8.00;3.10;;;;;;;8.67;65.85;100728.92;2505543;92;21102;-68
2022/02/23 11:35:21;;;;;;;8.65;3.40;;;;;;;8.71;66.62;100737.90;2499802;92;21144;-66
2022/02/23 11:39:26;;;;;;;15.05;3.22;;;;;;;9.05;66.25;100765.77;2474092;93;21181;-66
2022/02/23 11:43:46;;;;;;;12.45;3.77;;;;;;;8.96;65.04;100762.77;2484499;94;21145;-65
2022/02/23 11:47:49;;;;;;;10.05;3.15;;;;;;;9.05;65.17;100760.47;2509301;92;21089;-66
2022/02/23 11:52:10;;;;;;;7.22;3.27;;;;;;;9.12;66.66;100769.20;2507738;92;21134;-66
2022/02/23 11:56:16;;;;;;;14.45;3.77;;;;;;;8.93;65.10;100789.98;2507594;92;21181;-66
2022/02/23 12:00:31;;;;;;;12.88;4.03;;;;;;;8.81;65.16;100758.03;2474510;94;21165;-66
2022/02/23 12:04:54;;;;;;;5.87;2.25;;;;;;;8.81;66.07;100776.59;2630947;88;21150;-66
2022/02/23 12:08:56;;;;;;;6.10;2.50;;;;;;;8.76;65.98;100775.20;2643055;88;21122;-66
2022/02/23 12:12:59;;;;;;;7.03;2.47;;;;;;;8.80;65.73;100776.69;2640358;88;21139;-66
2022/02/23 12:17:01;;;;;;;10.28;2.55;;;;;;;8.91;65.77;100786.58;2628172;89;21055;-66
2022/02/23 12:21:11;;;;;;;7.60;2.40;;;;;;;8.95;65.61;100767.70;2637952;88;21171;-66
2022/02/23 12:25:14;;;;;;;9.00;2.65;;;;;;;8.92;64.35;100761.75;2633373;89;21070;-66
2022/02/23 12:29:17;;;;;;;8.35;2.52;;;;;;;9.08;65.47;100789.44;2658444;88;21102;-66
2022/02/23 12:33:20;;;;;;;4.72;2.47;;;;;;;9.12;63.32;100813.00;2659400;88;21113;-66
2022/02/23 12:37:24;;;;;;;4.92;2.30;;;;;;;9.31;63.02;100787.02;2644202;88;21087;-66
2022/02/23 12:41:30;;;;;;;5.62;3.10;;;;;;;9.35;62.81;100797.80;2638921;88;21657;-66
2022/02/23 12:45:31;;;;;;;;;;;;;;;9.15;62.85;100786.73;2633197;86;21140;-66
2022/02/23 12:49:33;;;;;;;7.17;3.02;;;;;;;9.16;63.61;100796.89;2619695;88;20157;-66
2022/02/23 12:53:39;;;;;;;5.47;2.40;;;;;;;9.14;62.34;100784.58;2569898;90;21149;-66
2022/02/23 12:57:44;;;;;;;;;;;;;;;9.10;61.72;100788.86;2648089;88;21540;-66
2022/02/23 13:01:53;;;;;;;11.50;2.47;;;;;;;9.11;63.16;100766.17;2644394;89;20123;-66
2022/02/23 13:05:56;;;;;;;7.58;2.00;;;;;;;9.02;63.49;100799.13;2644254;88;21114;-66
2022/02/23 13:10:02;;;;;;;6.28;2.35;;;;;;;8.97;62.48;100789.67;2649652;88;21101;-65
2022/02/23 13:14:11;;;;;;;13.20;4.15;;;;;;;9.19;63.89;100804.64;2639744;88;21739;-65
2022/02/23 13:18:12;;;;;;;10.45;3.27;;;;;;;9.35;62.16;100819.91;2639474;88;21113;-65
2022/02/23 13:22:18;;;;;;;7.37;3.02;;;;;;;9.41;60.83;100823.92;2641263;89;21082;-66
2022/02/23 13:26:33;;;;;;;6.30;2.60;;;;;;;9.62;63.27;100822.06;2641260;88;21097;-66
2022/02/23 13:30:35;;;;;;;8.10;2.35;;;;;;;9.60;63.09;100825.31;2638628;88;21043;-66
2022/02/23 13:34:42;;;;;;;6.53;2.17;;;;;;;9.56;63.56;100813.58;2640311;88;21133;-66
2022/02/23 13:38:44;;;;;;;6.50;2.58;;;;;;;9.69;61.91;100803.44;2631295;88;21110;-67
2022/02/23 13:42:50;;;;;;;7.22;2.70;;;;;;;9.65;61.99;100832.50;2635278;88;21046;-66
2022/02/23 13:46:58;;;;;;;14.35;2.25;;;;;;;9.35;60.83;100810.61;2636014;88;21098;-67
2022/02/23 13:51:00;;;;;;;4.75;2.15;;;;;;;9.09;61.93;100838.91;2569315;91;21076;-66
2022/02/23 13:55:13;;;;;;;5.62;2.98;;;;;;;9.00;60.40;100831.92;2588745;90;21086;-67
2022/02/23 13:59:17;;;;;;;9.15;2.72;;;;;;;8.97;61.46;100798.13;2560201;91;21096;-66
2022/02/23 14:03:35;;;;;;;11.30;4.15;;;;;;;9.11;60.51;100828.55;2578618;91;21132;-68
2022/02/23 14:07:40;;;;;;;19.07;3.33;;;;;;;9.06;62.03;100838.63;2587197;91;21110;-67
2022/02/23 14:11:44;;;;;;;9.60;2.80;;;;;;;9.03;60.32;100881.30;2565611;91;21130;-66
2022/02/23 14:15:46;;;;;;;7.45;3.90;;;;;;;9.27;60.82;100854.94;2637039;88;21087;-66
2022/02/23 14:19:52;;;;;;;15.88;3.70;;;;;;;9.32;59.31;100847.13;2643430;88;21079;-68
2022/02/23 14:23:57;;;;;;;4.83;2.77;;;;;;;9.31;60.47;100864.02;2651801;88;21077;-66
2022/02/23 14:27:59;;;;;;;7.13;2.40;;;;;;;9.45;59.15;100869.25;2635221;88;21059;-66
2022/02/23 14:32:03;;;;;;;12.85;3.75;;;;;;;9.72;60.70;100866.48;2637444;88;21055;-65
2022/02/23 14:36:05;;;;;;;8.50;3.17;;;;;;;9.55;60.00;100871.63;2643466;88;21142;-68
2022/02/23 14:40:11;;;;;;;14.68;3.62;;;;;;;9.42;61.87;100876.07;2637645;88;21559;-67
2022/02/23 14:44:13;;;;;;;10.13;5.50;;;;;;;9.34;59.05;100875.28;2649151;88;21031;-68
2022/02/23 14:48:15;;;;;;;14.90;5.03;;;;;;;9.51;57.92;100885.22;2638740;89;21094;-68
2022/02/23 14:52:16;;;;;;;8.85;3.05;;;;;;;9.67;56.71;100894.34;2643814;88;21082;-68
2022/02/23 14:56:20;;;;;;;6.22;3.40;;;;;;;9.77;55.85;100882.11;2634538;88;21315;-70
2022/02/23 15:00:23;;;;;;;10.03;3.62;;;;;;;9.76;54.88;100890.20;2628482;88;21153;-69
2022/02/23 15:04:25;;;;;;;5.90;1.92;;;;;;;9.80;55.88;100893.84;2634685;88;21038;-69
2022/02/23 15:08:27;;;;;;;6.08;3.50;;;;;;;9.79;57.07;100909.42;2639856;88;21702;-69
2022/02/23 15:12:29;;;;;;;6.95;3.15;;;;;;;9.81;59.35;100905.34;2635083;89;21376;-71
2022/02/23 15:16:31;;;;;;;7.92;2.90;;;;;;;9.71;57.76;100913.09;2638136;88;21125;-69
2022/02/23 15:20:33;;;;;;;6.15;3.30;;;;;;;9.58;57.56;100920.55;2588095;91;21162;-68
2022/02/23 15:24:36;;;;;;;186.18;87.72;;;;;;;9.61;58.45;100911.55;2583067;90;21132;-70
2022/02/23 15:28:38;;;;;;;109.97;50.60;;;;;;;9.55;58.51;100923.92;2642080;88;21034;-69
2022/02/23 15:32:40;;;;;;;21.17;11.78;;;;;;;9.48;58.86;100926.59;2636631;89;21063;-69
2022/02/23 15:36:42;;;;;;;10.85;5.55;;;;;;;9.40;59.01;100923.12;2636011;88;21094;-68
2022/02/23 15:40:44;;;;;;;7.22;4.65;;;;;;;9.34;60.22;100932.83;2634791;88;21047;-67
2022/02/23 15:44:47;;;;;;;27.45;10.15;;;;;;;9.27;60.18;100934.58;2647024;88;23401;-65
2022/02/23 15:48:48;;;;;;;9.85;5.12;;;;;;;9.20;61.01;100941.72;2650997;88;21075;-66
2022/02/23 15:52:50;;;;;;;10.70;3.42;;;;;;;9.04;61.01;100937.86;2644727;88;21097;-66
2022/02/23 15:56:52;;;;;;;6.20;2.62;;;;;;;8.86;61.69;100936.80;2634152;89;21549;-65
2022/02/23 16:00:54;;;;;;;7.20;3.17;;;;;;;8.66;63.19;100937.61;2635355;88;21556;-69
2022/02/23 16:04:55;;;;;;;9.35;4.70;;;;;;;8.44;65.03;100945.52;2638695;88;21087;-70
2022/02/23 16:08:58;;;;;;;13.62;5.47;;;;;;;8.13;66.31;100940.81;2642637;88;21109;-67
2022/02/23 16:13:02;;;;;;;13.28;5.65;;;;;;;7.91;66.53;100938.60;2649389;88;21039;-67
2022/02/23 16:17:07;;;;;;;8.83;5.42;;;;;;;7.74;67.23;100958.16;2643871;88;21809;-68
2022/02/23 16:21:09;;;;;;;12.00;6.22;;;;;;;7.47;68.90;100956.66;2648449;88;21102;-68
2022/02/23 16:25:13;;;;;;;10.70;5.03;;;;;;;7.26;69.71;100967.06;2635169;89;21075;-68
2022/02/23 16:29:15;;;;;;;12.53;6.20;;;;;;;6.93;70.49;100961.89;2637082;89;21699;-68
2022/02/23 16:33:17;;;;;;;9.18;5.03;;;;;;;6.80;70.79;100972.30;2570938;91;21412;-68
2022/02/23 16:37:18;;;;;;;7.45;4.33;;;;;;;6.82;70.56;100975.70;2574019;91;21097;-68
2022/02/23 16:41:20;;;;;;;9.38;4.40;;;;;;;6.81;70.26;100984.58;2634457;88;21043;-68
2022/02/23 16:45:21;;;;;;;5.60;4.42;;;;;;;6.71;70.61;100986.88;2638236;88;21095;-68
2022/02/23 16:49:23;;;;;;;11.48;5.12;;;;;;;6.39;71.70;100991.64;2634321;88;21117;-68
2022/02/23 16:53:25;;;;;;;18.73;9.03;;;;;;;6.29;72.32;100994.39;2634311;88;21119;-68
2022/02/23 16:57:27;;;;;;;14.55;5.70;;;;;;;6.27;72.22;100993.59;2634238;88;21704;-69
2022/02/23 17:01:29;;;;;;;6.35;5.10;;;;;;;6.27;72.91;100997.55;2645639;88;21106;-68
2022/02/23 17:05:31;;;;;;;11.80;6.70;;;;;;;6.27;72.20;101002.39;2643312;88;21046;-68
2022/02/23 17:09:33;;;;;;;21.40;6.47;;;;;;;6.16;72.55;101007.84;2649021;88;21093;-68
2022/02/23 17:13:35;;;;;;;13.05;7.87;;;;;;;6.10;72.13;101003.28;2642287;88;21070;-68
2022/02/23 17:17:39;;;;;;;15.28;8.38;;;;;;;6.11;71.74;101009.40;2647536;88;21081;-69
2022/02/23 17:21:42;;;;;;;15.03;9.00;;;;;;;6.07;71.91;101013.98;2648835;88;21102;-68
2022/02/23 17:25:46;;;;;;;21.60;9.38;;;;;;;5.97;72.20;101021.97;2579367;91;21097;-68
2022/02/23 17:29:48;;;;;;;23.02;8.83;;;;;;;5.92;72.33;101020.03;2645138;88;21552;-68
2022/02/23 17:33:51;;;;;;;19.35;8.28;;;;;;;5.74;73.25;101025.30;2581930;91;21077;-67
2022/02/23 17:37:53;;;;;;;18.25;7.87;;;;;;;5.56;73.62;101029.23;2647957;89;21062;-68
2022/02/23 17:41:55;;;;;;;21.73;7.53;;;;;;;5.48;73.21;101027.89;2643600;89;21083;-68
2022/02/23 17:45:59;;;;;;;12.13;7.40;;;;;;;5.43;72.99;101034.71;2647379;89;21066;-68
2022/02/23 17:50:01;;;;;;;16.82;7.62;;;;;;;5.42;72.76;101031.23;2639135;89;21574;-67
2022/02/23 17:54:02;;;;;;;19.52;10.75;;;;;;;5.45;72.42;101035.97;2628719;90;21102;-67
2022/02/23 17:58:05;;;;;;;21.10;11.18;;;;;;;5.40;72.44;101036.18;2637890;89;21205;-68
2022/02/23 18:02:08;;;;;;;20.50;12.15;;;;;;;5.38;72.44;101049.91;2635185;89;22012;-68
2022/02/23 18:06:10;;;;;;;40.90;19.98;;;;;;;5.27;72.56;101057.02;2647506;88;21061;-68
2022/02/23 18:10:11;;;;;;;51.90;23.57;;;;;;;5.17;72.84;101055.73;2637911;88;21075;-67
2022/02/23 18:14:13;;;;;;;43.98;21.55;;;;;;;5.16;72.93;101056.21;2633691;88;21126;-68
2022/02/23 18:18:15;;;;;;;42.73;24.98;;;;;;;5.22;73.08;101065.14;2635217;89;21523;-67
2022/02/23 18:22:17;;;;;;;24.75;15.70;;;;;;;5.20;73.60;101067.45;2633538;88;21094;-68
2022/02/23 18:26:18;;;;;;;19.75;12.78;;;;;;;5.17;73.72;101065.83;2634646;88;21050;-68
2022/02/23 18:30:20;;;;;;;21.12;12.58;;;;;;;5.24;73.72;101067.72;2634807;88;21051;-67
2022/02/23 18:34:21;;;;;;;24.98;15.43;;;;;;;5.26;73.41;101075.10;2632562;88;21710;-68
2022/02/23 18:38:24;;;;;;;34.40;21.45;;;;;;;5.30;73.02;101080.62;2633129;89;21059;-68
2022/02/23 18:42:27;;;;;;;39.53;24.57;;;;;;;5.24;72.42;101080.44;2632763;88;21095;-68
2022/02/23 18:46:29;;;;;;;37.05;20.80;;;;;;;5.19;72.57;101085.08;2634290;88;21181;-69
2022/02/23 18:50:32;;;;;;;40.17;18.50;;;;;;;5.20;72.52;101089.42;2634769;88;21059;-68
2022/02/23 18:54:34;;;;;;;33.20;18.95;;;;;;;5.17;72.39;101084.30;2641184;88;21070;-68
2022/02/23 18:58:39;;;;;;;32.63;16.93;;;;;;;5.17;72.58;101084.75;2646511;88;21113;-68
2022/02/23 19:02:41;;;;;;;27.82;18.23;;;;;;;5.17;72.74;101081.66;2635531;88;21059;-67
2022/02/23 19:06:45;;;;;;;22.90;14.90;;;;;;;5.20;72.45;101085.47;2635916;89;21277;-67